首页
METAR-TAF:

METAR-TAF

机场 :

鹿屋, 日本

纬度: 31-22N, 经度: 130-50E, 海拔: 65米

当前天气观测

该预报发布于1小时和9分钟前的22:54 UTC
风速1节,风向西转西北
温度 3°C
湿度 87%
气压 1027 hPa
能见度10公里或以上
少量云层高于3000英尺
多云层高于23000英尺
附近有, 火山灰

METAR: RJFY 122254Z 29001KT 9999 VCVA FEW030 BKN230 03/01 Q1027 RMK 1CU030 A3033 VOLCANIC ASH MT SAKURAJIMA 15KM NW-NE MOV E

时间: 09:03 (00:03 UTC)


TAF: 丢失

超过4000个机场的气象观测和天气预报(METAR&TAF报告)。

可查询的气象台以黄色和红色小点在地图上表示。

将鼠标移到小点上方,可查看气象台名称。

然后点击查看天气观测和预报。

如需切换地图:点击带黑十字的绿色按钮放大地图;点击带横线的绿色按钮缩小地图;或者点击绿色箭头查看邻近地区的地图。


METAR-TAF: